createdAt,value
2017-10-05T00:02:19.037Z,83.10
2017-10-05T00:04:46.505Z,83.00
2017-10-05T00:07:13.945Z,83.00
2017-10-05T00:09:42.168Z,83.60
2017-10-05T00:12:09.610Z,83.60
2017-10-05T00:14:37.073Z,83.10
2017-10-05T00:17:04.530Z,83.00
2017-10-05T00:19:32.746Z,83.10
2017-10-05T00:22:00.185Z,83.10
2017-10-05T00:24:27.645Z,83.30
2017-10-05T00:27:08.470Z,83.30
2017-10-05T00:32:08.926Z,83.50
2017-10-05T00:34:36.366Z,83.40
2017-10-05T00:37:03.815Z,83.70
2017-10-05T00:39:31.259Z,83.40
2017-10-05T00:41:59.474Z,83.60
2017-10-05T00:44:26.916Z,83.60
2017-10-05T00:46:54.368Z,84.20
2017-10-05T00:49:21.837Z,84.30
2017-10-05T00:51:49.287Z,84.20
2017-10-05T00:54:16.709Z,84.60
2017-10-05T00:57:02.032Z,84.80
2017-10-05T00:59:29.512Z,84.80
2017-10-05T01:01:56.986Z,85.20
2017-10-05T01:04:24.420Z,85.00
2017-10-05T01:06:51.870Z,85.20
2017-10-05T01:09:19.297Z,85.10
2017-10-05T01:11:46.780Z,85.40
2017-10-05T01:14:14.230Z,85.00
2017-10-05T01:16:41.705Z,85.20
2017-10-05T01:19:09.129Z,85.20
2017-10-05T01:21:36.572Z,85.00
2017-10-05T01:24:04.010Z,85.40
2017-10-05T01:26:31.446Z,85.80
2017-10-05T01:28:58.887Z,85.40
2017-10-05T01:37:19.465Z,85.90
2017-10-05T01:39:47.665Z,86.30
2017-10-05T01:42:16.984Z,86.20
2017-10-05T01:44:44.418Z,86.20
2017-10-05T01:49:36.681Z,86.40
2017-10-05T01:52:04.126Z,86.40
2017-10-05T01:54:31.584Z,86.20
2017-10-05T01:56:59.012Z,86.30
2017-10-05T01:59:26.471Z,86.60
2017-10-05T02:01:53.901Z,86.90
2017-10-05T02:04:44.695Z,86.80
2017-10-05T02:07:12.139Z,87.00
2017-10-05T02:09:39.577Z,87.00
2017-10-05T02:12:07.017Z,87.30
2017-10-05T02:14:35.233Z,87.60
2017-10-05T02:17:02.675Z,87.50
2017-10-05T02:19:30.127Z,87.70
2017-10-05T02:21:57.555Z,87.80
2017-10-05T02:24:28.385Z,87.80
2017-10-05T02:26:56.777Z,87.60
2017-10-05T02:29:24.204Z,88.00
2017-10-05T02:31:51.643Z,88.30
2017-10-05T02:34:19.133Z,88.30
2017-10-05T02:36:47.340Z,88.60
2017-10-05T02:39:14.765Z,88.50
2017-10-05T02:41:42.226Z,88.60
2017-10-05T02:44:09.658Z,89.00
2017-10-05T02:46:37.106Z,88.90
2017-10-05T02:49:04.553Z,88.90
2017-10-05T02:51:32.977Z,89.60
2017-10-05T02:54:01.194Z,89.00
2017-10-05T02:56:28.653Z,89.00
2017-10-05T02:58:56.090Z,89.10
2017-10-05T03:01:23.521Z,89.10
2017-10-05T03:03:51.714Z,88.90
2017-10-05T03:06:19.160Z,88.90
2017-10-05T03:08:47.368Z,88.90
2017-10-05T03:11:14.797Z,88.90
2017-10-05T03:13:42.242Z,89.00
2017-10-05T03:16:09.665Z,89.00
2017-10-05T03:18:57.189Z,88.90
2017-10-05T03:21:26.768Z,88.80
2017-10-05T03:23:54.312Z,88.60
2017-10-05T03:26:31.804Z,88.80
2017-10-05T03:28:59.241Z,88.80
2017-10-05T03:31:26.675Z,88.80
2017-10-05T03:34:07.008Z,88.80
2017-10-05T03:36:37.889Z,89.00
2017-10-05T03:39:06.093Z,88.80
2017-10-05T03:41:33.574Z,88.60
2017-10-05T03:44:01.025Z,88.80
2017-10-05T03:46:28.443Z,88.40
2017-10-05T03:48:56.704Z,88.80
2017-10-05T03:51:24.175Z,88.80
2017-10-05T03:53:52.453Z,88.70
2017-10-05T03:56:20.652Z,88.60
2017-10-05T03:58:48.076Z,88.60
2017-10-05T04:01:16.415Z,89.40
2017-10-05T04:03:43.845Z,88.70
2017-10-05T04:06:11.293Z,88.50
2017-10-05T04:08:38.925Z,88.20
2017-10-05T04:11:07.240Z,87.80
2017-10-05T04:13:42.316Z,87.80
2017-10-05T04:16:09.753Z,87.90
2017-10-05T04:18:37.188Z,87.60
2017-10-05T04:21:04.624Z,87.50
2017-10-05T04:23:32.813Z,87.70
2017-10-05T04:26:00.240Z,87.70
2017-10-05T04:28:27.684Z,87.50
2017-10-05T04:30:55.104Z,87.90
2017-10-05T04:33:22.552Z,87.70
2017-10-05T04:35:49.969Z,87.70
2017-10-05T04:38:18.175Z,88.20
2017-10-05T04:40:45.597Z,88.10
2017-10-05T04:43:13.032Z,88.20
2017-10-05T04:45:40.467Z,88.10
2017-10-05T04:48:07.891Z,88.10
2017-10-05T04:50:35.332Z,88.00
2017-10-05T04:53:03.547Z,88.50
2017-10-05T04:55:31.053Z,88.40
2017-10-05T04:57:58.545Z,88.50
2017-10-05T05:00:25.978Z,88.90
2017-10-05T05:02:53.403Z,88.80
2017-10-05T05:05:20.850Z,88.60
2017-10-05T05:07:48.352Z,88.90
2017-10-05T05:10:19.992Z,89.40
2017-10-05T05:12:47.446Z,89.40
2017-10-05T05:15:14.903Z,89.40
2017-10-05T05:17:42.513Z,89.50
2017-10-05T05:20:09.936Z,89.20
2017-10-05T05:22:38.136Z,89.00
2017-10-05T05:25:05.572Z,89.00
2017-10-05T05:27:37.010Z,89.10
2017-10-05T05:30:04.448Z,89.00
2017-10-05T05:32:31.888Z,89.10
2017-10-05T05:34:59.321Z,89.20
2017-10-05T05:37:26.761Z,89.00
2017-10-05T05:40:02.470Z,89.10
2017-10-05T05:42:29.897Z,88.80
2017-10-05T05:44:57.332Z,88.90
2017-10-05T05:47:24.760Z,88.80
2017-10-05T05:49:52.959Z,88.60
2017-10-05T05:52:25.298Z,88.60
2017-10-05T05:54:52.733Z,88.70
2017-10-05T05:57:20.170Z,88.30
2017-10-05T05:59:47.608Z,88.70
2017-10-05T06:02:15.062Z,88.60
2017-10-05T06:04:46.904Z,88.30
2017-10-05T06:07:15.096Z,87.40
2017-10-05T06:09:42.545Z,87.40
2017-10-05T06:12:09.978Z,87.60
2017-10-05T06:14:37.408Z,87.20
2017-10-05T06:17:04.840Z,87.10
2017-10-05T06:19:32.272Z,86.60
2017-10-05T06:21:59.708Z,87.50
2017-10-05T06:24:27.914Z,86.40
2017-10-05T06:27:01.169Z,86.10
2017-10-05T06:29:28.600Z,85.70
2017-10-05T06:31:56.095Z,84.40
2017-10-05T06:34:23.527Z,84.80
2017-10-05T06:36:50.984Z,84.00
2017-10-05T06:39:18.415Z,83.70
2017-10-05T06:41:45.843Z,83.10
2017-10-05T06:44:13.277Z,83.10
2017-10-05T06:46:41.468Z,81.20
2017-10-05T06:49:08.905Z,81.20
2017-10-05T06:51:38.051Z,80.60
2017-10-05T06:54:05.480Z,80.50
2017-10-05T06:56:32.917Z,80.90
2017-10-05T06:59:01.119Z,80.10
2017-10-05T07:01:28.562Z,80.10
2017-10-05T07:03:56.747Z,79.20
2017-10-05T07:06:30.497Z,79.10
2017-10-05T07:08:57.934Z,79.10
2017-10-05T07:11:25.375Z,78.90
2017-10-05T07:13:52.811Z,79.30
2017-10-05T07:16:20.248Z,79.40
2017-10-05T07:18:47.678Z,79.90
2017-10-05T07:21:15.107Z,79.20
2017-10-05T07:23:42.532Z,79.20
2017-10-05T07:26:10.740Z,79.30
2017-10-05T07:28:38.172Z,79.30
2017-10-05T07:31:05.607Z,78.60
2017-10-05T07:33:33.804Z,78.80
2017-10-05T07:36:01.236Z,78.80
2017-10-05T07:38:28.672Z,78.60
2017-10-05T07:40:56.105Z,78.60
2017-10-05T07:43:23.541Z,78.00
2017-10-05T07:45:50.960Z,77.50
2017-10-05T07:48:18.405Z,77.20
2017-10-05T07:50:45.824Z,76.90
2017-10-05T07:53:19.656Z,76.10
2017-10-05T07:55:47.085Z,74.80
2017-10-05T07:58:14.524Z,72.80
2017-10-05T08:00:41.948Z,68.30
2017-10-05T08:03:09.386Z,68.00
2017-10-05T08:05:36.856Z,66.40
2017-10-05T08:08:04.309Z,64.50
2017-10-05T08:10:31.736Z,63.80
2017-10-05T08:12:59.172Z,62.40
2017-10-05T08:15:26.601Z,59.50
2017-10-05T08:17:54.796Z,57.30
2017-10-05T08:20:22.223Z,57.30
2017-10-05T08:22:50.464Z,54.40
2017-10-05T08:25:17.947Z,54.40
2017-10-05T08:27:45.369Z,54.40
2017-10-05T08:30:12.816Z,53.80
2017-10-05T08:32:40.276Z,55.40
2017-10-05T08:35:07.713Z,53.60
2017-10-05T08:37:35.139Z,54.50
2017-10-05T08:40:03.349Z,55.60
2017-10-05T08:42:30.769Z,55.10
2017-10-05T08:44:58.205Z,56.30
2017-10-05T08:47:25.636Z,54.90
2017-10-05T08:49:57.084Z,54.50
2017-10-05T08:52:24.529Z,54.50
2017-10-05T08:54:52.057Z,54.90
2017-10-05T08:57:19.475Z,55.40
2017-10-05T08:59:46.926Z,54.80
2017-10-05T09:02:14.352Z,53.10
2017-10-05T09:04:41.812Z,54.80
2017-10-05T09:07:09.265Z,53.50
2017-10-05T09:09:37.529Z,55.10
2017-10-05T09:12:05.728Z,55.90
2017-10-05T09:14:33.176Z,55.80
2017-10-05T09:17:00.639Z,58.10
2017-10-05T09:19:28.081Z,58.50
2017-10-05T09:21:55.522Z,57.10
2017-10-05T09:24:22.959Z,57.00
2017-10-05T09:26:52.377Z,57.40
2017-10-05T09:29:20.642Z,59.60
2017-10-05T09:31:48.154Z,59.60
2017-10-05T09:34:16.602Z,60.00
2017-10-05T09:36:44.789Z,63.90
2017-10-05T09:39:12.244Z,63.90
2017-10-05T09:41:39.702Z,61.90
2017-10-05T09:44:07.132Z,60.80
2017-10-05T09:46:35.351Z,62.90
2017-10-05T09:49:02.789Z,62.70
2017-10-05T09:51:30.229Z,64.40
2017-10-05T09:53:57.669Z,65.00
2017-10-05T09:56:25.108Z,65.10
2017-10-05T09:58:52.568Z,67.10
2017-10-05T10:01:20.001Z,65.20
2017-10-05T10:03:48.965Z,64.60
2017-10-05T10:06:16.401Z,69.30
2017-10-05T10:08:44.596Z,68.50
2017-10-05T10:11:12.037Z,68.40
2017-10-05T10:13:40.235Z,69.30
2017-10-05T10:16:07.684Z,69.20
2017-10-05T10:18:35.114Z,70.80
2017-10-05T10:21:02.540Z,70.90
2017-10-05T10:23:29.993Z,71.30
2017-10-05T10:25:57.432Z,69.90
2017-10-05T10:28:24.857Z,72.00
2017-10-05T10:30:52.301Z,72.20
2017-10-05T10:33:19.731Z,73.30
2017-10-05T10:35:47.173Z,73.30
2017-10-05T10:38:14.614Z,75.10
2017-10-05T10:40:47.378Z,77.40
2017-10-05T10:43:14.800Z,79.00
2017-10-05T10:45:42.228Z,80.90
2017-10-05T10:48:10.641Z,82.20
2017-10-05T10:50:50.870Z,83.60
2017-10-05T10:53:18.305Z,83.40
2017-10-05T10:55:45.738Z,81.80
2017-10-05T10:58:13.173Z,83.20
2017-10-05T11:00:41.374Z,82.70
2017-10-05T11:03:08.921Z,82.70
2017-10-05T11:05:37.105Z,80.30
2017-10-05T11:08:04.535Z,80.20
2017-10-05T11:10:47.602Z,80.60
2017-10-05T11:13:15.041Z,80.60
2017-10-05T11:15:52.374Z,81.90
2017-10-05T11:18:19.808Z,82.10
2017-10-05T11:20:47.241Z,81.20
2017-10-05T11:23:14.676Z,81.50
2017-10-05T11:25:42.887Z,80.70
2017-10-05T11:28:10.310Z,80.60
2017-10-05T11:30:39.497Z,82.80
2017-10-05T11:33:06.932Z,82.80
2017-10-05T11:35:34.358Z,81.60
2017-10-05T11:38:01.881Z,81.20
2017-10-05T11:40:30.066Z,83.10
2017-10-05T11:42:57.499Z,83.10
2017-10-05T11:45:24.920Z,81.40
2017-10-05T11:47:52.358Z,82.50
2017-10-05T11:50:19.868Z,82.90
2017-10-05T11:52:47.308Z,81.60
2017-10-05T11:55:14.744Z,82.20
2017-10-05T11:57:42.265Z,81.80
2017-10-05T12:00:09.692Z,82.70
2017-10-05T12:02:37.132Z,81.10
2017-10-05T12:05:08.720Z,82.80
2017-10-05T12:07:36.919Z,87.80
2017-10-05T12:10:04.361Z,87.90
2017-10-05T12:12:38.839Z,89.50
2017-10-05T12:15:10.832Z,89.50
2017-10-05T12:17:39.028Z,89.80
2017-10-05T12:20:10.252Z,89.70
2017-10-05T12:22:38.452Z,90.00
2017-10-05T12:25:05.889Z,90.00
2017-10-05T12:27:36.112Z,89.20
2017-10-05T12:30:04.312Z,90.60
2017-10-05T12:32:31.738Z,90.60
2017-10-05T12:34:59.951Z,90.30
2017-10-05T12:37:27.384Z,90.30
2017-10-05T12:39:55.670Z,87.60
2017-10-05T12:42:23.107Z,87.60
2017-10-05T12:44:50.541Z,89.60
2017-10-05T12:47:17.964Z,89.80
2017-10-05T12:49:45.413Z,89.40
2017-10-05T12:52:12.835Z,89.10
2017-10-05T12:54:44.380Z,88.30
2017-10-05T12:57:12.648Z,87.80
2017-10-05T12:59:40.082Z,87.70
2017-10-05T13:02:07.521Z,88.40
2017-10-05T13:04:35.722Z,88.80
2017-10-05T13:07:03.148Z,89.30
2017-10-05T13:09:30.599Z,90.20
2017-10-05T13:11:58.036Z,89.20
2017-10-05T13:14:26.231Z,90.40
2017-10-05T13:16:53.660Z,90.40
2017-10-05T13:19:21.093Z,90.00
2017-10-05T13:21:48.533Z,90.10
2017-10-05T13:24:23.088Z,90.70
2017-10-05T13:26:51.283Z,90.20
2017-10-05T13:29:18.713Z,90.20
2017-10-05T13:31:46.961Z,90.90
2017-10-05T13:34:14.392Z,90.90
2017-10-05T13:36:41.831Z,91.30
2017-10-05T13:39:09.252Z,91.80
2017-10-05T13:41:37.564Z,91.70
2017-10-05T13:44:05.009Z,92.10
2017-10-05T13:46:33.198Z,93.20
2017-10-05T13:49:00.621Z,93.20
2017-10-05T13:51:28.821Z,92.90
2017-10-05T13:53:56.251Z,92.80
2017-10-05T13:56:24.452Z,93.20
2017-10-05T13:58:51.880Z,93.10
2017-10-05T14:01:20.082Z,92.90
2017-10-05T14:03:47.508Z,92.60
2017-10-05T14:06:14.949Z,92.50
2017-10-05T14:08:42.399Z,91.90
2017-10-05T14:11:09.836Z,92.20
2017-10-05T14:13:37.268Z,91.40
2017-10-05T14:16:04.716Z,91.80
2017-10-05T14:18:33.516Z,91.80
2017-10-05T14:21:00.952Z,91.80
2017-10-05T14:23:29.165Z,91.60
2017-10-05T14:25:56.639Z,91.60
2017-10-05T14:28:24.061Z,91.20
2017-10-05T14:30:52.504Z,91.60
2017-10-05T14:33:19.937Z,91.60
2017-10-05T14:35:47.370Z,91.40
2017-10-05T14:38:14.816Z,91.40
2017-10-05T14:40:42.265Z,91.20
2017-10-05T14:43:09.870Z,92.00
2017-10-05T14:45:37.304Z,91.50
2017-10-05T14:48:05.524Z,91.70
2017-10-05T14:50:32.965Z,91.70
2017-10-05T14:53:00.416Z,91.90
2017-10-05T14:55:27.872Z,91.40
2017-10-05T14:57:58.956Z,91.70
2017-10-05T15:00:27.152Z,91.90
2017-10-05T15:02:54.646Z,91.90
2017-10-05T15:05:22.078Z,92.10
2017-10-05T15:07:49.514Z,91.10
2017-10-05T15:10:16.944Z,92.00
2017-10-05T15:12:44.381Z,91.80
2017-10-05T15:15:11.828Z,91.20
2017-10-05T15:17:39.255Z,92.00
2017-10-05T15:20:06.724Z,91.90
2017-10-05T15:22:34.175Z,92.00
2017-10-05T15:25:01.618Z,92.20
2017-10-05T15:27:29.043Z,92.30
2017-10-05T15:29:57.248Z,91.50
2017-10-05T15:32:24.675Z,91.50
2017-10-05T15:34:52.238Z,91.60
2017-10-05T15:37:19.677Z,90.90
2017-10-05T15:39:47.107Z,91.10
2017-10-05T15:42:14.564Z,91.20
2017-10-05T15:44:42.005Z,91.50
2017-10-05T15:47:15.937Z,91.40
2017-10-05T15:49:43.371Z,91.80
2017-10-05T15:52:10.904Z,91.80
2017-10-05T15:54:42.236Z,91.70
2017-10-05T15:57:10.432Z,92.40
2017-10-05T15:59:45.535Z,92.30
2017-10-05T16:02:13.105Z,92.60
2017-10-05T16:04:40.527Z,91.90
2017-10-05T16:07:07.963Z,91.90
2017-10-05T16:09:35.407Z,91.80
2017-10-05T16:12:02.839Z,91.50
2017-10-05T16:14:31.101Z,91.70
2017-10-05T16:16:58.516Z,91.70
2017-10-05T16:19:25.981Z,91.70
2017-10-05T16:21:53.413Z,91.30
2017-10-05T16:24:20.839Z,91.20
2017-10-05T16:26:49.051Z,91.50
2017-10-05T16:29:16.471Z,91.50
2017-10-05T16:31:44.682Z,91.20
2017-10-05T16:34:12.110Z,91.20
2017-10-05T16:36:46.484Z,91.30
2017-10-05T16:39:13.916Z,91.80
2017-10-05T16:41:41.344Z,91.70
2017-10-05T16:44:08.785Z,91.40
2017-10-05T16:46:37.142Z,91.50
2017-10-05T16:49:04.574Z,91.50
2017-10-05T16:51:33.000Z,91.20
2017-10-05T16:54:00.428Z,91.10
2017-10-05T16:56:27.875Z,91.30
2017-10-05T16:58:56.302Z,91.90
2017-10-05T17:01:36.004Z,91.60
2017-10-05T17:04:03.445Z,91.50
2017-10-05T17:06:34.139Z,91.00
2017-10-05T17:09:02.357Z,90.70
2017-10-05T17:11:29.788Z,90.70
2017-10-05T17:13:57.220Z,91.00
2017-10-05T17:16:26.437Z,90.50
2017-10-05T17:18:53.870Z,90.50
2017-10-05T17:21:21.320Z,90.00
2017-10-05T17:23:48.748Z,89.50
2017-10-05T17:26:16.188Z,87.30
2017-10-05T17:28:47.269Z,87.60
2017-10-05T17:31:14.696Z,87.50
2017-10-05T17:33:42.127Z,87.60
2017-10-05T17:36:09.576Z,88.60
2017-10-05T17:38:37.007Z,88.60
2017-10-05T17:41:10.767Z,88.60
2017-10-05T17:43:38.215Z,88.50
2017-10-05T17:46:05.652Z,89.70
2017-10-05T17:48:33.080Z,89.40
2017-10-05T17:51:00.512Z,90.50
2017-10-05T17:53:27.953Z,87.50
2017-10-05T17:56:02.715Z,86.90
2017-10-05T17:58:38.343Z,85.30
2017-10-05T18:01:05.777Z,85.20
2017-10-05T18:03:36.879Z,85.20
2017-10-05T18:06:26.499Z,84.50
2017-10-05T18:08:54.941Z,84.50
2017-10-05T18:11:23.372Z,86.50
2017-10-05T18:13:50.812Z,86.50
2017-10-05T18:16:18.246Z,87.70
2017-10-05T18:18:45.676Z,86.60
2017-10-05T18:21:13.868Z,86.00
2017-10-05T18:23:42.077Z,85.60
2017-10-05T18:26:09.522Z,85.60
2017-10-05T18:28:36.965Z,85.50
2017-10-05T18:31:04.384Z,85.70
2017-10-05T18:33:31.837Z,85.20
2017-10-05T18:35:59.260Z,85.30
2017-10-05T18:38:30.061Z,86.30
2017-10-05T18:40:58.259Z,87.20
2017-10-05T18:43:25.697Z,87.10
2017-10-05T18:45:53.129Z,87.30
2017-10-05T18:48:20.673Z,88.00
2017-10-05T18:50:48.111Z,87.90
2017-10-05T18:53:15.558Z,87.30
2017-10-05T18:55:42.976Z,88.20
2017-10-05T18:58:11.192Z,89.40
2017-10-05T19:00:38.622Z,89.30
2017-10-05T19:03:06.058Z,88.50
2017-10-05T19:05:34.349Z,87.20
2017-10-05T19:08:01.787Z,87.00
2017-10-05T19:10:29.990Z,88.30
2017-10-05T19:12:58.432Z,88.30
2017-10-05T19:15:25.870Z,88.60
2017-10-05T19:17:53.301Z,88.10
2017-10-05T19:20:20.736Z,87.70
2017-10-05T19:22:49.185Z,88.10
2017-10-05T19:25:16.622Z,89.40
2017-10-05T19:27:44.056Z,89.20
2017-10-05T19:30:11.502Z,89.20
2017-10-05T19:32:38.935Z,89.70
2017-10-05T19:35:06.377Z,90.40
2017-10-05T19:37:33.809Z,90.20
2017-10-05T19:40:01.337Z,90.20
2017-10-05T19:42:28.789Z,90.00
2017-10-05T19:45:04.169Z,89.90
2017-10-05T19:47:31.605Z,90.00
2017-10-05T19:49:59.045Z,89.70
2017-10-05T19:52:26.479Z,89.50
2017-10-05T19:54:53.921Z,90.00
2017-10-05T19:57:22.117Z,90.30
2017-10-05T19:59:49.550Z,90.20
2017-10-05T20:02:16.986Z,90.30
2017-10-05T20:04:44.436Z,90.40
2017-10-05T20:07:11.870Z,90.50
2017-10-05T20:09:39.301Z,90.50
2017-10-05T20:12:06.750Z,90.20
2017-10-05T20:14:34.664Z,90.50
2017-10-05T20:20:12.328Z,90.60
2017-10-05T20:22:45.431Z,91.00
2017-10-05T20:25:18.673Z,91.00
2017-10-05T20:27:49.918Z,91.00
2017-10-05T20:30:36.112Z,90.90
2017-10-05T20:33:03.548Z,90.80
2017-10-05T20:35:31.011Z,90.80
2017-10-05T20:37:58.436Z,90.60
2017-10-05T20:40:25.865Z,90.60
2017-10-05T20:42:54.064Z,90.70
2017-10-05T20:45:21.604Z,90.60
2017-10-05T20:47:49.806Z,90.60
2017-10-05T20:50:17.232Z,90.60
2017-10-05T20:52:45.434Z,90.70
2017-10-05T20:55:12.865Z,90.70
2017-10-05T20:57:41.137Z,90.70
2017-10-05T21:00:09.349Z,90.70
2017-10-05T21:02:36.790Z,90.70
2017-10-05T21:05:04.221Z,90.70
2017-10-05T21:07:32.501Z,90.90
2017-10-05T21:10:00.706Z,91.00
2017-10-05T21:12:28.136Z,91.00
2017-10-05T21:14:56.344Z,90.70
2017-10-05T21:17:23.807Z,90.70
2017-10-05T21:19:51.240Z,90.80
2017-10-05T21:22:18.681Z,90.80
2017-10-05T21:24:53.373Z,91.40
2017-10-05T21:27:33.705Z,91.40
2017-10-05T21:30:01.129Z,91.30
2017-10-05T21:32:29.338Z,91.30
2017-10-05T21:34:56.761Z,91.30
2017-10-05T21:37:24.982Z,90.90
2017-10-05T21:39:52.419Z,91.30
2017-10-05T21:42:19.934Z,91.50
2017-10-05T21:44:47.374Z,91.60
2017-10-05T21:47:14.849Z,91.70
2017-10-05T21:49:42.293Z,91.70
2017-10-05T21:52:09.713Z,91.80
2017-10-05T21:54:37.198Z,91.70
2017-10-05T21:57:04.634Z,91.60
2017-10-05T21:59:32.076Z,91.60
2017-10-05T22:01:59.500Z,91.40
2017-10-05T22:04:27.697Z,91.60
2017-10-05T22:06:55.119Z,91.60
2017-10-05T22:09:22.557Z,91.80
2017-10-05T22:11:49.982Z,91.60
2017-10-05T22:14:27.501Z,91.70
2017-10-05T22:16:54.933Z,91.70
2017-10-05T22:19:22.373Z,91.90
2017-10-05T22:21:49.821Z,91.80
2017-10-05T22:24:17.264Z,91.80
2017-10-05T22:26:45.478Z,92.20
2017-10-05T22:29:12.911Z,92.20
2017-10-05T22:31:40.345Z,92.00
2017-10-05T22:34:08.560Z,92.10
2017-10-05T22:36:35.974Z,92.10
2017-10-05T22:39:03.430Z,92.00
2017-10-05T22:41:30.862Z,92.40
2017-10-05T22:43:58.290Z,92.20
2017-10-05T22:46:25.730Z,92.30
2017-10-05T22:48:53.162Z,92.20
2017-10-05T22:51:21.362Z,92.30
2017-10-05T22:53:48.785Z,92.20
2017-10-05T22:56:16.229Z,92.20
2017-10-05T22:58:43.652Z,92.50
2017-10-05T23:01:11.088Z,92.60
2017-10-05T23:03:38.532Z,92.80
2017-10-05T23:06:06.747Z,92.40
2017-10-05T23:08:34.170Z,92.40
2017-10-05T23:11:01.611Z,92.30
2017-10-05T23:13:29.792Z,92.40
2017-10-05T23:15:57.998Z,92.10
2017-10-05T23:18:25.445Z,92.00
2017-10-05T23:20:52.892Z,91.80
2017-10-05T23:23:20.318Z,91.80
2017-10-05T23:25:47.758Z,92.00
2017-10-05T23:28:15.188Z,91.80
2017-10-05T23:30:42.626Z,92.00
2017-10-05T23:33:10.048Z,92.00
2017-10-05T23:35:37.486Z,92.00
2017-10-05T23:38:04.957Z,91.90
2017-10-05T23:40:32.384Z,91.90
2017-10-05T23:42:59.826Z,91.90
2017-10-05T23:45:27.280Z,91.80
2017-10-05T23:47:54.709Z,91.70
2017-10-05T23:50:22.909Z,91.70
2017-10-05T23:52:50.332Z,92.00
2017-10-05T23:55:18.530Z,91.30
2017-10-05T23:57:45.957Z,91.30
